Time;durP1;ratioP1;P1;durP2;ratioP2;P2;SDS_P1;SDS_P2;PMS_P1;PMS_P2;Temp;Humidity;BMP_temperature;BMP_pressure;BME280_temperature;BME280_humidity;BME280_pressure;Samples;Min_cycle;Max_cycle;Signal;HPM_P1;HPM_P2
2022/03/17 00:00:18;;;;;;;;;;;;;;;;;;1055208;27;1926;-70
2022/03/17 00:01:08;;;;;;;;;;;;;;;;;;1050756;28;3919;-68
2022/03/17 00:01:38;;;;;;;;;;;;;;;;;;1050692;28;2292;-68
2022/03/17 00:02:09;;;;;;;;;;;;;;;;;;1051134;28;3882;-68
2022/03/17 00:02:39;;;;;;;;;;;;;;;;;;1053787;28;1614;-69
2022/03/17 00:03:09;;;;;;;;;;;;;;;;;;1055985;27;4014;-71
2022/03/17 00:03:40;;;;;;;;;;;;;;;;;;1055075;27;1884;-71
2022/03/17 00:04:10;;;;;;;;;;;;;;;;;;1056838;27;3940;-70
2022/03/17 00:04:40;;;;;;;;;;;;;;;;;;1054844;27;2999;-69
2022/03/17 00:05:11;;;;;;;;;;;;;;;;;;1056321;27;4349;-70
2022/03/17 00:05:41;;;;;;;;;;;;;;;;;;1049043;28;2720;-69
2022/03/17 00:06:13;;;;;;;;;;;;;;;;;;1049275;28;4112;-68
2022/03/17 00:06:43;;;;;;;;;;;;;;;;;;1049159;28;2270;-68
2022/03/17 00:07:14;;;;;;;;;;;;;;;;;;1049236;27;3912;-68
2022/03/17 00:07:46;;;;;;;;;;;;;;;;;;1055723;27;1906;-68
2022/03/17 00:08:16;;;;;;;;;;;;;;;;;;1053275;28;3636;-70
2022/03/17 00:08:46;;;;;;;;;;;;;;;;;;1054535;28;3966;-70
2022/03/17 00:09:17;;;;;;;;;;;;;;;;;;1053201;28;2875;-69
2022/03/17 00:09:47;;;;;;;;;;;;;;;;;;1054728;28;3852;-70
2022/03/17 00:10:17;;;;;;;;;;;;;;;;;;1056840;27;1407;-71
2022/03/17 00:10:48;;;;;;;;;;;;;;;;;;1055409;27;3896;-70
2022/03/17 00:11:18;;;;;;;;;;;;;;;;;;1055221;27;2410;-70
2022/03/17 00:11:49;;;;;;;;;;;;;;;;;;1056192;27;4099;-68
2022/03/17 00:12:19;;;;;;;;;;;;;;;;;;1056564;27;1523;-68
2022/03/17 00:12:50;;;;;;;;;;;;;;;;;;1056059;28;3871;-70
2022/03/17 00:13:20;;;;;;;;;;;;;;;;;;1055409;27;2262;-70
2022/03/17 00:13:50;;;;;;;;;;;;;;;;;;1055399;27;4054;-68
2022/03/17 00:14:21;;;;;;;;;;;;;;;;;;1051417;28;3228;-69
2022/03/17 00:14:51;;;;;;;;;;;;;;;;;;1051061;28;4233;-70
2022/03/17 00:15:22;;;;;;;;;;;;;;;;;;1051594;28;2864;-72
2022/03/17 00:15:52;;;;;;;;;;;;;;;;;;1051761;28;4157;-68
2022/03/17 00:16:22;;;;;;;;;;;;;;;;;;1054916;27;2496;-69
2022/03/17 00:16:52;;;;;;;;;;;;;;;;;;1055818;27;3978;-72
2022/03/17 00:17:22;;;;;;;;;;;;;;;;;;1057026;27;1647;-71
2022/03/17 00:17:53;;;;;;;;;;;;;;;;;;1050762;28;4113;-72
2022/03/17 00:18:23;;;;;;;;;;;;;;;;;;1051287;28;1931;-69
2022/03/17 00:19:05;;;;;;;;;;;;;;;;;;1047314;28;4227;-70
2022/03/17 00:19:36;;;;;;;;;;;;;;;;;;1049166;28;2521;-70
2022/03/17 00:20:07;;;;;;;;;;;;;;;;;;1053541;28;3958;-69
2022/03/17 00:20:37;;;;;;;;;;;;;;;;;;1054934;28;1574;-69
2022/03/17 00:21:07;;;;;;;;;;;;;;;;;;1055263;28;3965;-70
2022/03/17 00:21:38;;;;;;;;;;;;;;;;;;1051566;28;2398;-69
2022/03/17 00:22:09;;;;;;;;;;;;;;;;;;1048042;28;3954;-70
2022/03/17 00:22:40;;;;;;;;;;;;;;;;;;1050149;28;2533;-68
2022/03/17 00:23:10;;;;;;;;;;;;;;;;;;1049423;28;4030;-69
2022/03/17 00:23:40;;;;;;;;;;;;;;;;;;1054421;28;1389;-69
2022/03/17 00:24:10;;;;;;;;;;;;;;;;;;1054654;28;4099;-70
2022/03/17 00:24:41;;;;;;;;;;;;;;;;;;1054828;28;1243;-69
2022/03/17 00:25:11;;;;;;;;;;;;;;;;;;1053048;28;4014;-71
2022/03/17 00:25:42;;;;;;;;;;;;;;;;;;1053707;28;2834;-68
2022/03/17 00:26:12;;;;;;;;;;;;;;;;;;1053579;28;3873;-68
2022/03/17 00:26:43;;;;;;;;;;;;;;;;;;1053624;28;1841;-69
2022/03/17 00:27:13;;;;;;;;;;;;;;;;;;1054234;28;3814;-70
2022/03/17 00:27:43;;;;;;;;;;;;;;;;;;1053616;28;1988;-68
2022/03/17 00:28:14;;;;;;;;;;;;;;;;;;1049174;28;3810;-68
2022/03/17 00:28:44;;;;;;;;;;;;;;;;;;1051458;28;1690;-70
2022/03/17 00:29:19;;;;;;;;;;;;;;;;;;1049943;28;3833;-69
2022/03/17 00:29:50;;;;;;;;;;;;;;;;;;1050143;28;4050;-70
2022/03/17 00:30:20;;;;;;;;;;;;;;;;;;1052887;28;1729;-68
2022/03/17 00:30:50;;;;;;;;;;;;;;;;;;1053947;28;3893;-70
2022/03/17 00:31:21;;;;;;;;;;;;;;;;;;1053688;27;1829;-68
2022/03/17 00:31:51;;;;;;;;;;;;;;;;;;1057510;27;4073;-68
2022/03/17 00:32:35;;;;;;;;;;;;;;;;;;1053182;28;2521;-69
2022/03/17 00:33:12;;;;;;;;;;;;;;;;;;1056024;27;4009;-69
2022/03/17 00:33:42;;;;;;;;;;;;;;;;;;1053863;28;2370;-68
2022/03/17 00:34:12;;;;;;;;;;;;;;;;;;1047418;28;4122;-72
2022/03/17 00:35:35;;;;;;;;;;;;;;;;;;1048575;28;4144;-68
2022/03/17 00:36:05;;;;;;;;;;;;;;;;;;1053986;28;4063;-70
2022/03/17 00:36:35;;;;;;;;;;;;;;;;;;1056255;28;2138;-72
2022/03/17 00:37:08;;;;;;;;;;;;;;;;;;1054232;28;4292;-69
2022/03/17 00:37:38;;;;;;;;;;;;;;;;;;1056364;28;2850;-71
2022/03/17 00:38:10;;;;;;;;;;;;;;;;;;1054682;28;4239;-68
2022/03/17 00:38:40;;;;;;;;;;;;;;;;;;1055854;28;2334;-70
2022/03/17 00:39:11;;;;;;;;;;;;;;;;;;1055258;28;4387;-72
2022/03/17 00:39:41;;;;;;;;;;;;;;;;;;1055746;27;1693;-70
2022/03/17 00:40:13;;;;;;;;;;;;;;;;;;1050762;28;3863;-68
2022/03/17 00:40:44;;;;;;;;;;;;;;;;;;1051892;28;2621;-67
2022/03/17 00:41:14;;;;;;;;;;;;;;;;;;1051151;28;3993;-68
2022/03/17 00:41:44;;;;;;;;;;;;;;;;;;1050029;28;1691;-69
2022/03/17 00:42:15;;;;;;;;;;;;;;;;;;1053625;28;4191;-68
2022/03/17 00:42:45;;;;;;;;;;;;;;;;;;1053124;28;2542;-69
2022/03/17 00:43:15;;;;;;;;;;;;;;;;;;1052879;28;4091;-70
2022/03/17 00:43:46;;;;;;;;;;;;;;;;;;1055598;28;1696;-68
2022/03/17 00:44:16;;;;;;;;;;;;;;;;;;1055348;28;3998;-71
2022/03/17 00:44:46;;;;;;;;;;;;;;;;;;1054063;28;3882;-70
2022/03/17 00:45:16;;;;;;;;;;;;;;;;;;1054455;28;2482;-69
2022/03/17 00:45:47;;;;;;;;;;;;;;;;;;1056059;28;3973;-67
2022/03/17 00:46:18;;;;;;;;;;;;;;;;;;1054985;28;1371;-69
2022/03/17 00:46:48;;;;;;;;;;;;;;;;;;1056469;28;4063;-68
2022/03/17 00:47:18;;;;;;;;;;;;;;;;;;1055980;28;1605;-70
2022/03/17 00:47:48;;;;;;;;;;;;;;;;;;1055645;28;3925;-70
2022/03/17 00:48:19;;;;;;;;;;;;;;;;;;1055311;28;2445;-68
2022/03/17 00:48:49;;;;;;;;;;;;;;;;;;1055403;28;4164;-70
2022/03/17 00:49:19;;;;;;;;;;;;;;;;;;1055123;28;1699;-69
2022/03/17 00:49:49;;;;;;;;;;;;;;;;;;1055988;28;3869;-70
2022/03/17 00:50:20;;;;;;;;;;;;;;;;;;1056720;28;1630;-68
2022/03/17 00:50:50;;;;;;;;;;;;;;;;;;1055991;28;3916;-71
2022/03/17 00:51:21;;;;;;;;;;;;;;;;;;1055387;28;1845;-69
2022/03/17 00:51:51;;;;;;;;;;;;;;;;;;1054948;28;4086;-69
2022/03/17 00:52:21;;;;;;;;;;;;;;;;;;1056114;28;2084;-70
2022/03/17 00:52:52;;;;;;;;;;;;;;;;;;1049701;28;4188;-70
2022/03/17 00:53:23;;;;;;;;;;;;;;;;;;1050725;28;2037;-70
2022/03/17 00:53:53;;;;;;;;;;;;;;;;;;1051771;28;4041;-71
2022/03/17 00:54:23;;;;;;;;;;;;;;;;;;1050529;28;1882;-71
2022/03/17 00:54:54;;;;;;;;;;;;;;;;;;1055396;28;4189;-69
2022/03/17 00:55:24;;;;;;;;;;;;;;;;;;1054508;28;3152;-69
2022/03/17 00:55:54;;;;;;;;;;;;;;;;;;1056845;28;3897;-70
2022/03/17 00:56:24;;;;;;;;;;;;;;;;;;1056134;28;1824;-71
2022/03/17 00:56:55;;;;;;;;;;;;;;;;;;1054344;28;3901;-70
2022/03/17 00:57:25;;;;;;;;;;;;;;;;;;1055238;28;2519;-71
2022/03/17 00:57:56;;;;;;;;;;;;;;;;;;1056014;28;4052;-69
2022/03/17 00:58:29;;;;;;;;;;;;;;;;;;1055507;28;1643;-69
2022/03/17 00:58:59;;;;;;;;;;;;;;;;;;1055275;28;4076;-69
2022/03/17 00:59:30;;;;;;;;;;;;;;;;;;1055836;28;2084;-69
2022/03/17 01:00:00;;;;;;;;;;;;;;;;;;1049886;28;4138;-71
2022/03/17 01:00:30;;;;;;;;;;;;;;;;;;1051188;28;2545;-71
2022/03/17 01:01:00;;;;;;;;;;;;;;;;;;1046627;28;3908;-69
2022/03/17 01:01:31;;;;;;;;;;;;;;;;;;1047288;28;1930;-68
2022/03/17 01:02:02;;;;;;;;;;;;;;;;;;1052524;28;4074;-69
2022/03/17 01:02:32;;;;;;;;;;;;;;;;;;1052281;28;2104;-70
2022/03/17 01:03:05;;;;;;;;;;;;;;;;;;1055438;28;4023;-69
2022/03/17 01:03:35;;;;;;;;;;;;;;;;;;1055463;28;2194;-69
2022/03/17 01:04:06;;;;;;;;;;;;;;;;;;1057065;28;4141;-69
2022/03/17 01:04:37;;;;;;;;;;;;;;;;;;1055366;28;2921;-69
2022/03/17 01:05:07;;;;;;;;;;;;;;;;;;1057405;28;4026;-70
2022/03/17 01:05:39;;;;;;;;;;;;;;;;;;1054535;28;3112;-68
2022/03/17 01:06:10;;;;;;;;;;;;;;;;;;1055334;28;4162;-70
2022/03/17 01:06:40;;;;;;;;;;;;;;;;;;1055733;28;2422;-69
2022/03/17 01:07:10;;;;;;;;;;;;;;;;;;1054934;28;4035;-69
2022/03/17 01:07:41;;;;;;;;;;;;;;;;;;1055204;28;2374;-69
2022/03/17 01:08:11;;;;;;;;;;;;;;;;;;1055062;28;3809;-71
2022/03/17 01:08:42;;;;;;;;;;;;;;;;;;1052070;28;2116;-70
2022/03/17 01:09:12;;;;;;;;;;;;;;;;;;1050226;28;3981;-70
2022/03/17 01:09:42;;;;;;;;;;;;;;;;;;1050581;28;1345;-68
2022/03/17 01:10:17;;;;;;;;;;;;;;;;;;1048868;28;3800;-67
2022/03/17 01:10:48;;;;;;;;;;;;;;;;;;1053539;28;4274;-70
2022/03/17 01:11:18;;;;;;;;;;;;;;;;;;1054217;28;2066;-70
2022/03/17 01:11:49;;;;;;;;;;;;;;;;;;1054809;28;3874;-68
2022/03/17 01:12:19;;;;;;;;;;;;;;;;;;1055522;28;1531;-69
2022/03/17 01:12:50;;;;;;;;;;;;;;;;;;1054663;28;3809;-70
2022/03/17 01:13:27;;;;;;;;;;;;;;;;;;1056592;28;1483;-71
2022/03/17 01:13:57;;;;;;;;;;;;;;;;;;1054405;28;3881;-69
2022/03/17 01:14:28;;;;;;;;;;;;;;;;;;1055348;28;2495;-70
2022/03/17 01:14:58;;;;;;;;;;;;;;;;;;1053748;28;3943;-69
2022/03/17 01:15:31;;;;;;;;;;;;;;;;;;1055871;28;3113;-68
2022/03/17 01:16:02;;;;;;;;;;;;;;;;;;1055293;28;3971;-69
2022/03/17 01:16:33;;;;;;;;;;;;;;;;;;1055794;28;1138;-69
2022/03/17 01:17:03;;;;;;;;;;;;;;;;;;1054379;28;4020;-68
2022/03/17 01:17:34;;;;;;;;;;;;;;;;;;1056107;28;1648;-69
2022/03/17 01:18:04;;;;;;;;;;;;;;;;;;1056380;28;3984;-70
2022/03/17 01:18:34;;;;;;;;;;;;;;;;;;1054821;28;1390;-69
2022/03/17 01:19:05;;;;;;;;;;;;;;;;;;1055464;28;3957;-67
2022/03/17 01:19:35;;;;;;;;;;;;;;;;;;1055222;28;1683;-70
2022/03/17 01:20:06;;;;;;;;;;;;;;;;;;1055705;28;4382;-68
2022/03/17 01:20:36;;;;;;;;;;;;;;;;;;1055628;28;2696;-67
2022/03/17 01:21:07;;;;;;;;;;;;;;;;;;1055460;28;3744;-68
2022/03/17 01:21:37;;;;;;;;;;;;;;;;;;1056548;28;2241;-67
2022/03/17 01:22:07;;;;;;;;;;;;;;;;;;1055066;28;3861;-67
2022/03/17 01:22:38;;;;;;;;;;;;;;;;;;1055725;28;1497;-69
2022/03/17 01:23:08;;;;;;;;;;;;;;;;;;1054857;28;4009;-68
2022/03/17 01:23:38;;;;;;;;;;;;;;;;;;1055627;28;2321;-68
2022/03/17 01:24:09;;;;;;;;;;;;;;;;;;1055989;28;3989;-68
2022/03/17 01:24:39;;;;;;;;;;;;;;;;;;1056011;28;2317;-67
2022/03/17 01:25:10;;;;;;;;;;;;;;;;;;1055065;28;3865;-71
2022/03/17 01:25:40;;;;;;;;;;;;;;;;;;1055027;28;2584;-70
2022/03/17 01:26:11;;;;;;;;;;;;;;;;;;1055184;28;3859;-70
2022/03/17 01:26:41;;;;;;;;;;;;;;;;;;1053450;28;2049;-69
2022/03/17 01:27:11;;;;;;;;;;;;;;;;;;1049629;28;4240;-69
2022/03/17 01:27:41;;;;;;;;;;;;;;;;;;1049197;28;2672;-68
2022/03/17 01:28:12;;;;;;;;;;;;;;;;;;1051127;28;4124;-67
2022/03/17 01:28:42;;;;;;;;;;;;;;;;;;1053476;28;1957;-69
2022/03/17 01:29:13;;;;;;;;;;;;;;;;;;1055985;28;3814;-69
2022/03/17 01:29:43;;;;;;;;;;;;;;;;;;1056573;28;2493;-69
2022/03/17 01:30:13;;;;;;;;;;;;;;;;;;1053987;28;4126;-68
2022/03/17 01:30:44;;;;;;;;;;;;;;;;;;1056568;28;2870;-68
2022/03/17 01:31:14;;;;;;;;;;;;;;;;;;1054194;28;3825;-68
2022/03/17 01:31:45;;;;;;;;;;;;;;;;;;1055691;28;3170;-68
2022/03/17 01:32:31;;;;;;;;;;;;;;;;;;1052706;28;3875;-67
2022/03/17 01:33:08;;;;;;;;;;;;;;;;;;1045609;28;4046;-72
2022/03/17 01:33:38;;;;;;;;;;;;;;;;;;1045377;28;2312;-69
2022/03/17 01:34:08;;;;;;;;;;;;;;;;;;1046184;28;4044;-69
2022/03/17 01:34:38;;;;;;;;;;;;;;;;;;1046610;28;3012;-68
2022/03/17 01:35:09;;;;;;;;;;;;;;;;;;1046423;28;3887;-69
2022/03/17 01:35:40;;;;;;;;;;;;;;;;;;1046340;28;2766;-69
2022/03/17 01:36:10;;;;;;;;;;;;;;;;;;1046955;28;4138;-69
2022/03/17 01:36:40;;;;;;;;;;;;;;;;;;1045892;28;2458;-68
2022/03/17 01:37:10;;;;;;;;;;;;;;;;;;1046241;28;4152;-71
2022/03/17 01:37:41;;;;;;;;;;;;;;;;;;1046895;28;1279;-69
2022/03/17 01:38:18;;;;;;;;;;;;;;;;;;1046286;28;3896;-69
2022/03/17 01:38:48;;;;;;;;;;;;;;;;;;1047134;28;4028;-71
2022/03/17 01:39:18;;;;;;;;;;;;;;;;;;1047374;28;1769;-68
2022/03/17 01:39:49;;;;;;;;;;;;;;;;;;1048077;28;3885;-69
2022/03/17 01:40:19;;;;;;;;;;;;;;;;;;1045783;28;2683;-69
2022/03/17 01:40:49;;;;;;;;;;;;;;;;;;1048258;28;4167;-68
2022/03/17 01:41:20;;;;;;;;;;;;;;;;;;1047581;28;1959;-70
2022/03/17 01:41:50;;;;;;;;;;;;;;;;;;1048490;28;4080;-70
2022/03/17 01:42:20;;;;;;;;;;;;;;;;;;1049238;28;1200;-69
2022/03/17 01:42:51;;;;;;;;;;;;;;;;;;1047681;28;3866;-70
2022/03/17 01:43:21;;;;;;;;;;;;;;;;;;1047597;28;1545;-71
2022/03/17 01:43:51;;;;;;;;;;;;;;;;;;1047249;28;3865;-68
2022/03/17 01:44:22;;;;;;;;;;;;;;;;;;1048000;28;2648;-69
2022/03/17 01:44:52;;;;;;;;;;;;;;;;;;1046110;28;3889;-67
2022/03/17 01:45:22;;;;;;;;;;;;;;;;;;1047567;28;1280;-69
2022/03/17 01:45:53;;;;;;;;;;;;;;;;;;1046714;28;4054;-69
2022/03/17 01:46:23;;;;;;;;;;;;;;;;;;1048139;28;2558;-69
2022/03/17 01:47:43;;;;;;;;;;;;;;;;;;1049961;28;1314;-70
2022/03/17 01:48:13;;;;;;;;;;;;;;;;;;1049139;28;4063;-69
2022/03/17 01:48:44;;;;;;;;;;;;;;;;;;1046769;28;1861;-68
2022/03/17 01:49:14;;;;;;;;;;;;;;;;;;1046562;28;3824;-69
2022/03/17 01:49:45;;;;;;;;;;;;;;;;;;1048760;28;1882;-69
2022/03/17 01:50:16;;;;;;;;;;;;;;;;;;1047059;28;3816;-69
2022/03/17 01:50:46;;;;;;;;;;;;;;;;;;1047196;28;4133;-68
2022/03/17 01:51:16;;;;;;;;;;;;;;;;;;1048205;28;1557;-69
2022/03/17 01:51:48;;;;;;;;;;;;;;;;;;1047977;28;4051;-68
2022/03/17 01:52:18;;;;;;;;;;;;;;;;;;1050077;28;1812;-68
2022/03/17 01:52:48;;;;;;;;;;;;;;;;;;1045770;28;3821;-69
2022/03/17 01:53:20;;;;;;;;;;;;;;;;;;1045011;28;2655;-69
2022/03/17 01:53:51;;;;;;;;;;;;;;;;;;1040762;28;4059;-68
2022/03/17 01:54:24;;;;;;;;;;;;;;;;;;1043285;28;2234;-70
2022/03/17 01:54:55;;;;;;;;;;;;;;;;;;1047603;28;3886;-67
2022/03/17 01:55:25;;;;;;;;;;;;;;;;;;1046995;28;1572;-68
2022/03/17 01:55:57;;;;;;;;;;;;;;;;;;1050524;28;4061;-69
2022/03/17 01:56:27;;;;;;;;;;;;;;;;;;1050298;28;2417;-67
2022/03/17 01:57:00;;;;;;;;;;;;;;;;;;1045755;28;3892;-69
2022/03/17 01:57:31;;;;;;;;;;;;;;;;;;1046458;28;2874;-69
2022/03/17 01:58:02;;;;;;;;;;;;;;;;;;1046728;28;3872;-67
2022/03/17 01:58:32;;;;;;;;;;;;;;;;;;1045527;28;2274;-67
2022/03/17 01:59:02;;;;;;;;;;;;;;;;;;1046973;28;3805;-68
2022/03/17 01:59:33;;;;;;;;;;;;;;;;;;1045997;28;2606;-67
2022/03/17 02:00:04;;;;;;;;;;;;;;;;;;1045032;28;4265;-69
2022/03/17 02:00:35;;;;;;;;;;;;;;;;;;1049230;28;3119;-68
2022/03/17 02:01:05;;;;;;;;;;;;;;;;;;1046718;28;3867;-67
2022/03/17 02:01:35;;;;;;;;;;;;;;;;;;1048711;28;2129;-68
2022/03/17 02:02:07;;;;;;;;;;;;;;;;;;1047800;28;4115;-69
2022/03/17 02:02:37;;;;;;;;;;;;;;;;;;1048211;28;2368;-69
2022/03/17 02:03:08;;;;;;;;;;;;;;;;;;1050304;28;3765;-70
2022/03/17 02:03:43;;;;;;;;;;;;;;;;;;1049881;28;1708;-68
2022/03/17 02:04:13;;;;;;;;;;;;;;;;;;1042260;28;4042;-69
2022/03/17 02:04:47;;;;;;;;;;;;;;;;;;1043347;28;2432;-70
2022/03/17 02:05:17;;;;;;;;;;;;;;;;;;1044497;28;3878;-68
2022/03/17 02:05:50;;;;;;;;;;;;;;;;;;1045648;28;3800;-70
2022/03/17 02:06:20;;;;;;;;;;;;;;;;;;1048603;28;2418;-71
2022/03/17 02:06:51;;;;;;;;;;;;;;;;;;1047379;28;4106;-70
2022/03/17 02:07:21;;;;;;;;;;;;;;;;;;1048816;28;2774;-69
2022/03/17 02:07:52;;;;;;;;;;;;;;;;;;1046942;28;4071;-67
2022/03/17 02:08:22;;;;;;;;;;;;;;;;;;1049217;28;1363;-68
2022/03/17 02:08:53;;;;;;;;;;;;;;;;;;1047198;28;3856;-69
2022/03/17 02:09:26;;;;;;;;;;;;;;;;;;1048364;28;2525;-68
2022/03/17 02:09:56;;;;;;;;;;;;;;;;;;1050638;28;4013;-67
2022/03/17 02:13:08;;;;;;;;;;;;;;;;;;1050078;28;1715;-68
2022/03/17 02:13:09;;;;;;;;;;;;;;;;;;1047847;28;3931;-70
2022/03/17 02:13:40;;;;;;;;;;;;;;;;;;1046603;28;2477;-68
2022/03/17 02:14:12;;;;;;;;;;;;;;;;;;1048299;28;3906;-69
2022/03/17 02:14:46;;;;;;;;;;;;;;;;;;1048294;28;2766;-69
2022/03/17 02:15:17;;;;;;;;;;;;;;;;;;1048683;28;3604;-70
2022/03/17 02:15:51;;;;;;;;;;;;;;;;;;1048627;28;4048;-70
2022/03/17 02:16:21;;;;;;;;;;;;;;;;;;1047306;28;2254;-70
2022/03/17 02:16:52;;;;;;;;;;;;;;;;;;1047536;28;3978;-68
2022/03/17 02:17:22;;;;;;;;;;;;;;;;;;1047754;28;2776;-68
2022/03/17 02:17:53;;;;;;;;;;;;;;;;;;1047733;28;4076;-71
2022/03/17 02:18:23;;;;;;;;;;;;;;;;;;1047460;28;3223;-70
2022/03/17 02:18:53;;;;;;;;;;;;;;;;;;1047894;28;3803;-68
2022/03/17 02:19:24;;;;;;;;;;;;;;;;;;1047764;28;2559;-68
2022/03/17 02:19:54;;;;;;;;;;;;;;;;;;1048019;28;3875;-69
2022/03/17 02:20:27;;;;;;;;;;;;;;;;;;1048297;28;2808;-70
2022/03/17 02:20:59;;;;;;;;;;;;;;;;;;1047432;28;4018;-69
2022/03/17 02:21:29;;;;;;;;;;;;;;;;;;1047891;28;2343;-67
2022/03/17 02:22:00;;;;;;;;;;;;;;;;;;1046671;28;4057;-70
2022/03/17 02:22:30;;;;;;;;;;;;;;;;;;1047374;28;2831;-69
2022/03/17 02:25:33;;;;;;;;;;;;;;;;;;1047055;28;4033;-69
2022/03/17 02:25:36;;;;;;;;;;;;;;;;;;1046470;28;3979;-69
2022/03/17 02:26:06;;;;;;;;;;;;;;;;;;1048480;28;3757;-70
2022/03/17 02:26:37;;;;;;;;;;;;;;;;;;1047428;28;2446;-69
2022/03/17 02:27:08;;;;;;;;;;;;;;;;;;1049120;28;4025;-68
2022/03/17 02:27:46;;;;;;;;;;;;;;;;;;1049158;28;3031;-68
2022/03/17 02:28:17;;;;;;;;;;;;;;;;;;1045039;28;3872;-69
2022/03/17 02:28:47;;;;;;;;;;;;;;;;;;1043819;28;4052;-70
2022/03/17 02:29:17;;;;;;;;;;;;;;;;;;1047537;28;2054;-72
2022/03/17 02:29:47;;;;;;;;;;;;;;;;;;1048311;28;3890;-67
2022/03/17 02:30:19;;;;;;;;;;;;;;;;;;1047479;28;2243;-71
2022/03/17 02:30:49;;;;;;;;;;;;;;;;;;1047691;28;4070;-69
2022/03/17 02:31:19;;;;;;;;;;;;;;;;;;1046897;28;2259;-69
2022/03/17 02:31:50;;;;;;;;;;;;;;;;;;1047888;28;3972;-70
2022/03/17 02:32:20;;;;;;;;;;;;;;;;;;1047563;28;2387;-69
2022/03/17 02:33:07;;;;;;;;;;;;;;;;;;1053995;27;4438;-69
2022/03/17 02:33:45;;;;;;;;;;;;;;;;;;1056520;27;3544;-69
2022/03/17 02:34:18;;;;;;;;;;;;;;;;;;1055747;28;4027;-70
2022/03/17 02:34:48;;;;;;;;;;;;;;;;;;1055372;27;4056;-69
2022/03/17 02:35:22;;;;;;;;;;;;;;;;;;1055570;27;2661;-71
2022/03/17 02:35:53;;;;;;;;;;;;;;;;;;1054934;27;4005;-69
2022/03/17 02:36:24;;;;;;;;;;;;;;;;;;1055786;27;3021;-68
2022/03/17 02:36:55;;;;;;;;;;;;;;;;;;1055169;28;4036;-70
2022/03/17 02:37:26;;;;;;;;;;;;;;;;;;1055949;27;2369;-67
2022/03/17 02:37:58;;;;;;;;;;;;;;;;;;1050701;28;3870;-69
2022/03/17 02:38:28;;;;;;;;;;;;;;;;;;1051460;28;1964;-69
2022/03/17 02:38:58;;;;;;;;;;;;;;;;;;1051360;28;3863;-70
2022/03/17 02:39:28;;;;;;;;;;;;;;;;;;1052455;28;2007;-68
2022/03/17 02:39:59;;;;;;;;;;;;;;;;;;1055453;27;4053;-68
2022/03/17 02:40:34;;;;;;;;;;;;;;;;;;1056002;27;2212;-67
2022/03/17 02:41:04;;;;;;;;;;;;;;;;;;1055750;27;4015;-69
2022/03/17 02:41:34;;;;;;;;;;;;;;;;;;1050414;28;2337;-70
2022/03/17 02:42:05;;;;;;;;;;;;;;;;;;1052397;28;3790;-69
2022/03/17 02:42:37;;;;;;;;;;;;;;;;;;1050824;28;2419;-68
2022/03/17 02:43:07;;;;;;;;;;;;;;;;;;1050747;27;3872;-68
2022/03/17 02:43:38;;;;;;;;;;;;;;;;;;1055754;27;2806;-70
2022/03/17 02:44:09;;;;;;;;;;;;;;;;;;1056389;27;3794;-71
2022/03/17 02:44:40;;;;;;;;;;;;;;;;;;1056249;27;2594;-68
2022/03/17 02:45:13;;;;;;;;;;;;;;;;;;1055657;27;4048;-68
2022/03/17 02:45:43;;;;;;;;;;;;;;;;;;1056154;27;2627;-68
2022/03/17 02:46:14;;;;;;;;;;;;;;;;;;1055275;27;3837;-68
2022/03/17 02:46:44;;;;;;;;;;;;;;;;;;1056563;27;2989;-69
2022/03/17 02:47:14;;;;;;;;;;;;;;;;;;1055531;27;3921;-68
2022/03/17 02:47:44;;;;;;;;;;;;;;;;;;1056274;27;2493;-69
2022/03/17 02:48:16;;;;;;;;;;;;;;;;;;1056391;27;3823;-67
2022/03/17 02:48:46;;;;;;;;;;;;;;;;;;1056409;27;3875;-70
2022/03/17 02:49:18;;;;;;;;;;;;;;;;;;1055119;27;2674;-68
2022/03/17 02:49:48;;;;;;;;;;;;;;;;;;1056504;27;3889;-69
2022/03/17 02:50:19;;;;;;;;;;;;;;;;;;1056395;27;2134;-68
2022/03/17 02:50:49;;;;;;;;;;;;;;;;;;1055521;27;4045;-72
2022/03/17 02:51:19;;;;;;;;;;;;;;;;;;1056281;27;2386;-67
2022/03/17 02:51:49;;;;;;;;;;;;;;;;;;1055244;27;4139;-69
2022/03/17 02:52:20;;;;;;;;;;;;;;;;;;1057314;27;2467;-68
2022/03/17 02:52:50;;;;;;;;;;;;;;;;;;1055404;27;4072;-68
2022/03/17 02:53:20;;;;;;;;;;;;;;;;;;1055445;27;2599;-69
2022/03/17 02:53:50;;;;;;;;;;;;;;;;;;1057550;27;4130;-68
2022/03/17 02:54:21;;;;;;;;;;;;;;;;;;1055786;27;2583;-69
2022/03/17 02:54:52;;;;;;;;;;;;;;;;;;1051450;28;3918;-68
2022/03/17 02:55:22;;;;;;;;;;;;;;;;;;1051323;28;2876;-69
2022/03/17 02:55:53;;;;;;;;;;;;;;;;;;1052006;28;3906;-68
2022/03/17 02:56:24;;;;;;;;;;;;;;;;;;1051281;28;2296;-70
2022/03/17 02:56:55;;;;;;;;;;;;;;;;;;1054272;28;3875;-68
2022/03/17 02:57:25;;;;;;;;;;;;;;;;;;1053291;28;2976;-68
2022/03/17 02:57:55;;;;;;;;;;;;;;;;;;1054011;28;3809;-70
2022/03/17 02:58:25;;;;;;;;;;;;;;;;;;1051964;28;2936;-70
2022/03/17 02:58:56;;;;;;;;;;;;;;;;;;1054147;27;4108;-70
2022/03/17 02:59:26;;;;;;;;;;;;;;;;;;1055909;27;2513;-71
2022/03/17 02:59:56;;;;;;;;;;;;;;;;;;1055584;27;4087;-69
2022/03/17 03:00:26;;;;;;;;;;;;;;;;;;1055338;27;2430;-69
2022/03/17 03:00:57;;;;;;;;;;;;;;;;;;1052892;28;3870;-70
2022/03/17 03:01:27;;;;;;;;;;;;;;;;;;1049136;28;2198;-70
2022/03/17 03:01:57;;;;;;;;;;;;;;;;;;1049910;28;4062;-70
2022/03/17 03:02:28;;;;;;;;;;;;;;;;;;1049471;28;2519;-69
2022/03/17 03:02:58;;;;;;;;;;;;;;;;;;1052466;28;4016;-68
2022/03/17 03:03:28;;;;;;;;;;;;;;;;;;1055807;27;2229;-69
2022/03/17 03:03:58;;;;;;;;;;;;;;;;;;1056774;27;3957;-69
2022/03/17 03:04:29;;;;;;;;;;;;;;;;;;1057655;27;2630;-70
2022/03/17 03:04:59;;;;;;;;;;;;;;;;;;1055777;27;4036;-68
2022/03/17 03:05:29;;;;;;;;;;;;;;;;;;1056247;27;2159;-68
2022/03/17 03:05:59;;;;;;;;;;;;;;;;;;1055923;28;4256;-69
2022/03/17 03:06:30;;;;;;;;;;;;;;;;;;1056001;27;2835;-69
2022/03/17 03:07:02;;;;;;;;;;;;;;;;;;1055851;27;3900;-69
2022/03/17 03:07:32;;;;;;;;;;;;;;;;;;1056631;27;2535;-69
2022/03/17 03:08:02;;;;;;;;;;;;;;;;;;1057115;27;4064;-68
2022/03/17 03:08:33;;;;;;;;;;;;;;;;;;1055986;27;1296;-69
2022/03/17 03:09:04;;;;;;;;;;;;;;;;;;1055028;27;4137;-69
2022/03/17 03:09:34;;;;;;;;;;;;;;;;;;1056461;27;2450;-70
2022/03/17 03:10:05;;;;;;;;;;;;;;;;;;1055508;27;3921;-69
2022/03/17 03:10:36;;;;;;;;;;;;;;;;;;1055883;27;2290;-71
2022/03/17 03:11:06;;;;;;;;;;;;;;;;;;1055992;27;4221;-68
2022/03/17 03:11:37;;;;;;;;;;;;;;;;;;1055216;27;2737;-70
2022/03/17 03:12:08;;;;;;;;;;;;;;;;;;1056347;27;3906;-71
2022/03/17 03:12:38;;;;;;;;;;;;;;;;;;1055712;27;2159;-72
2022/03/17 03:13:10;;;;;;;;;;;;;;;;;;1051201;28;3966;-69
2022/03/17 03:13:40;;;;;;;;;;;;;;;;;;1051136;28;2872;-68
2022/03/17 03:14:10;;;;;;;;;;;;;;;;;;1051258;28;3861;-68
2022/03/17 03:14:41;;;;;;;;;;;;;;;;;;1050907;28;2570;-68
2022/03/17 03:15:11;;;;;;;;;;;;;;;;;;1056793;27;3936;-69
2022/03/17 03:15:42;;;;;;;;;;;;;;;;;;1056725;27;1809;-69
2022/03/17 03:16:13;;;;;;;;;;;;;;;;;;1055297;27;3760;-70
2022/03/17 03:16:44;;;;;;;;;;;;;;;;;;1055750;28;1806;-69
2022/03/17 03:17:14;;;;;;;;;;;;;;;;;;1055279;27;4017;-67
2022/03/17 03:17:51;;;;;;;;;;;;;;;;;;1056107;27;3941;-69
2022/03/17 03:18:22;;;;;;;;;;;;;;;;;;1054482;27;2412;-69
2022/03/17 03:18:52;;;;;;;;;;;;;;;;;;1056583;27;4242;-69
2022/03/17 03:19:22;;;;;;;;;;;;;;;;;;1051763;28;2361;-69
2022/03/17 03:19:53;;;;;;;;;;;;;;;;;;1052329;28;4061;-67
2022/03/17 03:20:23;;;;;;;;;;;;;;;;;;1052035;27;1826;-69
2022/03/17 03:20:54;;;;;;;;;;;;;;;;;;1050990;28;3949;-71
2022/03/17 03:21:25;;;;;;;;;;;;;;;;;;1052983;28;2056;-70
2022/03/17 03:21:55;;;;;;;;;;;;;;;;;;1053436;28;4105;-70
2022/03/17 03:22:29;;;;;;;;;;;;;;;;;;1054113;28;1356;-68
2022/03/17 03:22:59;;;;;;;;;;;;;;;;;;1053957;27;4087;-70
2022/03/17 03:23:29;;;;;;;;;;;;;;;;;;1055797;27;2539;-68
2022/03/17 03:24:00;;;;;;;;;;;;;;;;;;1054870;27;4026;-68
2022/03/17 03:24:31;;;;;;;;;;;;;;;;;;1057267;27;2572;-69
2022/03/17 03:25:01;;;;;;;;;;;;;;;;;;1055571;28;4061;-69
2022/03/17 03:25:31;;;;;;;;;;;;;;;;;;1055194;27;2034;-69
2022/03/17 03:26:01;;;;;;;;;;;;;;;;;;1056590;27;4008;-68
2022/03/17 03:26:31;;;;;;;;;;;;;;;;;;1052374;28;2311;-67
2022/03/17 03:27:03;;;;;;;;;;;;;;;;;;1054101;28;4431;-70
2022/03/17 03:27:33;;;;;;;;;;;;;;;;;;1053839;28;2493;-70
2022/03/17 03:28:08;;;;;;;;;;;;;;;;;;1053732;28;3859;-68
2022/03/17 03:28:39;;;;;;;;;;;;;;;;;;1051616;28;2709;-71
2022/03/17 03:29:22;;;;;;;;;;;;;;;;;;1053458;28;3877;-67
2022/03/17 03:29:56;;;;;;;;;;;;;;;;;;1053055;28;3900;-69
2022/03/17 03:30:27;;;;;;;;;;;;;;;;;;1054808;27;2066;-68
2022/03/17 03:30:57;;;;;;;;;;;;;;;;;;1055918;27;4138;-67
2022/03/17 03:31:27;;;;;;;;;;;;;;;;;;1056335;27;1994;-68
2022/03/17 03:31:59;;;;;;;;;;;;;;;;;;1054959;28;4425;-69
2022/03/17 03:32:44;;;;;;;;;;;;;;;;;;1056280;27;2278;-68
2022/03/17 03:33:21;;;;;;;;;;;;;;;;;;1055086;27;3796;-68
2022/03/17 03:33:51;;;;;;;;;;;;;;;;;;1055178;27;3912;-70
2022/03/17 03:34:22;;;;;;;;;;;;;;;;;;1056414;27;2488;-70
2022/03/17 03:34:52;;;;;;;;;;;;;;;;;;1057778;27;4063;-69
2022/03/17 03:37:23;;;;;;;;;;;;;;;;;;1055828;27;3862;-69
2022/03/17 03:37:53;;;;;;;;;;;;;;;;;;1055401;27;4040;-70
2022/03/17 03:38:24;;;;;;;;;;;;;;;;;;1057005;27;1724;-69
2022/03/17 03:38:54;;;;;;;;;;;;;;;;;;1050193;28;4103;-69
2022/03/17 03:39:24;;;;;;;;;;;;;;;;;;1051095;28;1605;-70
2022/03/17 03:39:56;;;;;;;;;;;;;;;;;;1052001;28;4098;-69
2022/03/17 03:40:26;;;;;;;;;;;;;;;;;;1051179;28;2225;-70
2022/03/17 03:40:56;;;;;;;;;;;;;;;;;;1056195;27;4158;-70
2022/03/17 03:41:27;;;;;;;;;;;;;;;;;;1055396;27;2261;-69
2022/03/17 03:41:57;;;;;;;;;;;;;;;;;;1055200;28;4076;-68
2022/03/17 03:42:27;;;;;;;;;;;;;;;;;;1055276;27;2354;-69
2022/03/17 03:42:58;;;;;;;;;;;;;;;;;;1055713;27;3794;-70
2022/03/17 03:43:28;;;;;;;;;;;;;;;;;;1051267;28;2316;-69